American Phoenix — WDG2754 — position and weather

sailwx.info

Track history (hours):
 
Tides and Currents Weather Stations Pressure Air Temp Water Temp Dewpoint Dewpoint Depression Visibility Wind Speed Wind Dir Waves Ship Positions

American Phoenix

Owner: Seabulk Tankers, Inc., Fort Lauderdale, FL. More information available from US FCC via Universal Licensing System.

Last reported at 2017-Nov-17 04:58 UTC. Time now 2017-Nov-18 23:24 UTC.
Position N 30°01' W 093°58'.

Length 184 m; draft 8.2 m.

Type: Ship. MMSI: 367518920.

Date/timePositionNaut miles runAvg speedWind from/ knotsBaromVisibWave heightAir tempDewpointWater temp
2017-Nov-17 04:58N 30°01' W 093°58'2 3.5
2017-Nov-17 04:21N 29°60' W 093°56'3 8.8
2017-Nov-17 04:00N 29°59' W 093°53'13 7.5
2017-Nov-17 02:14N 29°46' W 093°54'1210.5
2017-Nov-17 01:05N 29°36' W 093°46'112.1
2017-Nov-17 00:59N 29°37' W 093°45'1 0.1
2017-Nov-16 16:04N 29°37' W 093°44'0 0.0
2017-Nov-16 15:52N 29°37' W 093°44'0 0.0
2017-Nov-16 15:31N 29°37' W 093°44'0 0.0
2017-Nov-16 14:55N 29°37' W 093°44'0 0.2
2017-Nov-16 14:31N 29°37' W 093°44'0 0.7
2017-Nov-16 14:00N 29°37' W 093°44'3 6.8
2017-Nov-16 13:30N 29°34' W 093°41'6 5.7
2017-Nov-16 12:30N 29°29' W 093°40'713.9
2017-Nov-16 11:59N 29°22' W 093°40'714.0
2017-Nov-16 11:30N 29°15' W 093°39'  
2017-Nov-13 23:58N 25°05' W 080°05'612.7
2017-Nov-13 23:30N 25°10' W 080°02'612.6
2017-Nov-13 23:00N 25°16' W 079°59'612.5
2017-Nov-13 22:30N 25°22' W 079°57'612.5
2017-Nov-13 22:00N 25°28' W 079°56'  
2017-Nov-11 05:34N 39°17' W 074°00'514.3
2017-Nov-11 05:15N 39°22' W 073°59'414.4
2017-Nov-11 04:59N 39°25' W 073°58'714.3
2017-Nov-11 04:30N 39°32' W 073°56'814.3
2017-Nov-11 03:56N 39°40' W 073°53'814.4
2017-Nov-11 03:22N 39°48' W 073°51'2014.6
2017-Nov-11 01:59N 40°08' W 073°50'510.8
2017-Nov-11 01:29N 40°14' W 073°50'510.0
2017-Nov-11 01:00N 40°18' W 073°49'510.0
2017-Nov-11 00:30N 40°23' W 073°49'510.1
2017-Nov-11 00:00N 40°28' W 073°52'5 9.4
2017-Nov-10 23:30N 40°30' W 073°58'611.9
2017-Nov-10 23:00N 40°35' W 074°02'5 9.2
2017-Nov-10 22:30N 40°39' W 074°06'4 8.1
2017-Nov-10 22:00N 40°39' W 074°11'1 2.3
2017-Nov-10 21:30N 40°38' W 074°12'0 0.1
2017-Nov-10 21:00N 40°38' W 074°12'0 0.0
2017-Nov-10 02:33N 40°38' W 074°12'0 0.0
2017-Nov-09 20:45N 40°38' W 074°12'0 0.0
2017-Nov-09 18:41N 40°38' W 074°12'0 0.2
2017-Nov-09 18:30N 40°38' W 074°12'2 3.3
2017-Nov-09 18:00N 40°36' W 074°12'3 5.1
2017-Nov-09 17:30N 40°34' W 074°13'4 5.1
2017-Nov-09 16:48N 40°31' W 074°15'2 5.1
2017-Nov-09 16:28N 40°29' W 074°14'4 9.1
2017-Nov-09 15:59N 40°30' W 074°08'511.2
2017-Nov-09 15:30N 40°29' W 074°01'510.0
2017-Nov-09 15:00N 40°26' W 073°55'4 7.9
2017-Nov-09 14:30N 40°23' W 073°53'3 5.6
2017-Nov-09 13:57N 40°21' W 073°49'2 5.1
2017-Nov-09 13:29N 40°20' W 073°46'3 5.5
2017-Nov-09 13:00N 40°18' W 073°46'3 5.4
2017-Nov-09 12:25N 40°15' W 073°46'19 5.1
2017-Nov-09 08:40N 39°56' W 073°43'6 5.5
2017-Nov-09 07:37N 39°50' W 073°42'8 5.4
2017-Nov-09 06:04N 39°42' W 073°42'  
Track history (hours):
 
Tides and Currents Weather Stations Pressure Air Temp Water Temp Dewpoint Dewpoint Depression Visibility Wind Speed Wind Dir Waves Ship Positions

American Phoenix

Owner: Seabulk Tankers, Inc., Fort Lauderdale, FL. More information available from US FCC via Universal Licensing System.

Last reported at 2017-Nov-17 04:58 UTC. Time now 2017-Nov-18 23:24 UTC.
Position N 30°01' W 093°58'.

Length 184 m; draft 8.2 m.

Type: Ship. MMSI: 367518920.

Date/timePositionNaut miles runAvg speedWind from/ knotsBaromVisibWave heightAir tempDewpointWater temp
2017-Nov-17 04:58N 30°01' W 093°58'2 3.5
2017-Nov-17 04:21N 29°60' W 093°56'3 8.8
2017-Nov-17 04:00N 29°59' W 093°53'13 7.5
2017-Nov-17 02:14N 29°46' W 093°54'1210.5
2017-Nov-17 01:05N 29°36' W 093°46'112.1
2017-Nov-17 00:59N 29°37' W 093°45'1 0.1
2017-Nov-16 16:04N 29°37' W 093°44'0 0.0
2017-Nov-16 15:52N 29°37' W 093°44'0 0.0
2017-Nov-16 15:31N 29°37' W 093°44'0 0.0
2017-Nov-16 14:55N 29°37' W 093°44'0 0.2
2017-Nov-16 14:31N 29°37' W 093°44'0 0.7
2017-Nov-16 14:00N 29°37' W 093°44'3 6.8
2017-Nov-16 13:30N 29°34' W 093°41'6 5.7
2017-Nov-16 12:30N 29°29' W 093°40'713.9
2017-Nov-16 11:59N 29°22' W 093°40'714.0
2017-Nov-16 11:30N 29°15' W 093°39'  
2017-Nov-13 23:58N 25°05' W 080°05'612.7
2017-Nov-13 23:30N 25°10' W 080°02'612.6
2017-Nov-13 23:00N 25°16' W 079°59'612.5
2017-Nov-13 22:30N 25°22' W 079°57'612.5
2017-Nov-13 22:00N 25°28' W 079°56'  
2017-Nov-11 05:34N 39°17' W 074°00'514.3
2017-Nov-11 05:15N 39°22' W 073°59'414.4
2017-Nov-11 04:59N 39°25' W 073°58'714.3
2017-Nov-11 04:30N 39°32' W 073°56'814.3
2017-Nov-11 03:56N 39°40' W 073°53'814.4
2017-Nov-11 03:22N 39°48' W 073°51'2014.6
2017-Nov-11 01:59N 40°08' W 073°50'510.8
2017-Nov-11 01:29N 40°14' W 073°50'510.0
2017-Nov-11 01:00N 40°18' W 073°49'510.0
2017-Nov-11 00:30N 40°23' W 073°49'510.1
2017-Nov-11 00:00N 40°28' W 073°52'5 9.4
2017-Nov-10 23:30N 40°30' W 073°58'611.9
2017-Nov-10 23:00N 40°35' W 074°02'5 9.2
2017-Nov-10 22:30N 40°39' W 074°06'4 8.1
2017-Nov-10 22:00N 40°39' W 074°11'1 2.3
2017-Nov-10 21:30N 40°38' W 074°12'0 0.1
2017-Nov-10 21:00N 40°38' W 074°12'0 0.0
2017-Nov-10 02:33N 40°38' W 074°12'0 0.0
2017-Nov-09 20:45N 40°38' W 074°12'0 0.0
2017-Nov-09 18:41N 40°38' W 074°12'0 0.2
2017-Nov-09 18:30N 40°38' W 074°12'2 3.3
2017-Nov-09 18:00N 40°36' W 074°12'3 5.1
2017-Nov-09 17:30N 40°34' W 074°13'4 5.1
2017-Nov-09 16:48N 40°31' W 074°15'2 5.1
2017-Nov-09 16:28N 40°29' W 074°14'4 9.1
2017-Nov-09 15:59N 40°30' W 074°08'511.2
2017-Nov-09 15:30N 40°29' W 074°01'510.0
2017-Nov-09 15:00N 40°26' W 073°55'4 7.9
2017-Nov-09 14:30N 40°23' W 073°53'3 5.6
2017-Nov-09 13:57N 40°21' W 073°49'2 5.1
2017-Nov-09 13:29N 40°20' W 073°46'3 5.5
2017-Nov-09 13:00N 40°18' W 073°46'3 5.4
2017-Nov-09 12:25N 40°15' W 073°46'19 5.1
2017-Nov-09 08:40N 39°56' W 073°43'6 5.5
2017-Nov-09 07:37N 39°50' W 073°42'8 5.4
2017-Nov-09 06:04N 39°42' W 073°42'  

Dump ship's entire track history